sensor_id;sensor_type;location;lat;lon;timestamp;P1;durP1;ratioP1;P2;durP2;ratioP2
40322;SDS011;26030;51.164;17.100;2023-12-20T00:03:57;24.30;;;16.30;;
40322;SDS011;26030;51.164;17.100;2023-12-20T00:09:02;30.30;;;17.40;;
40322;SDS011;26030;51.164;17.100;2023-12-20T00:14:07;25.70;;;16.10;;
40322;SDS011;26030;51.164;17.100;2023-12-20T00:19:11;25.00;;;15.80;;
40322;SDS011;26030;51.164;17.100;2023-12-20T00:24:16;23.10;;;15.70;;
40322;SDS011;26030;51.164;17.100;2023-12-20T00:29:22;22.20;;;14.90;;
40322;SDS011;26030;51.164;17.100;2023-12-20T00:34:26;23.50;;;14.60;;
40322;SDS011;26030;51.164;17.100;2023-12-20T00:39:31;21.80;;;15.10;;
40322;SDS011;26030;51.164;17.100;2023-12-20T00:44:37;19.70;;;13.30;;
40322;SDS011;26030;51.164;17.100;2023-12-20T00:49:42;18.80;;;13.90;;
40322;SDS011;26030;51.164;17.100;2023-12-20T00:54:46;20.50;;;14.30;;
40322;SDS011;26030;51.164;17.100;2023-12-20T00:59:51;19.60;;;14.10;;
40322;SDS011;26030;51.164;17.100;2023-12-20T01:04:56;16.20;;;12.60;;
40322;SDS011;26030;51.164;17.100;2023-12-20T01:10:02;18.90;;;13.20;;
40322;SDS011;26030;51.164;17.100;2023-12-20T01:15:07;16.70;;;12.40;;
40322;SDS011;26030;51.164;17.100;2023-12-20T01:20:13;16.30;;;12.30;;
40322;SDS011;26030;51.164;17.100;2023-12-20T01:25:18;19.00;;;12.10;;
40322;SDS011;26030;51.164;17.100;2023-12-20T01:30:23;16.80;;;11.90;;
40322;SDS011;26030;51.164;17.100;2023-12-20T01:35:28;18.80;;;12.00;;
40322;SDS011;26030;51.164;17.100;2023-12-20T01:40:33;15.70;;;11.80;;
40322;SDS011;26030;51.164;17.100;2023-12-20T01:45:38;16.60;;;12.00;;
40322;SDS011;26030;51.164;17.100;2023-12-20T01:50:45;18.00;;;11.10;;
40322;SDS011;26030;51.164;17.100;2023-12-20T01:55:50;21.20;;;12.20;;
40322;SDS011;26030;51.164;17.100;2023-12-20T02:00:56;15.30;;;12.20;;
40322;SDS011;26030;51.164;17.100;2023-12-20T02:06:03;15.50;;;11.20;;
40322;SDS011;26030;51.164;17.100;2023-12-20T02:11:08;15.50;;;10.40;;
40322;SDS011;26030;51.164;17.100;2023-12-20T02:16:12;13.30;;;10.10;;
40322;SDS011;26030;51.164;17.100;2023-12-20T02:21:17;12.60;;;9.50;;
40322;SDS011;26030;51.164;17.100;2023-12-20T02:26:22;11.70;;;9.10;;
40322;SDS011;26030;51.164;17.100;2023-12-20T02:31:26;10.90;;;9.40;;
40322;SDS011;26030;51.164;17.100;2023-12-20T02:36:31;13.10;;;9.60;;
40322;SDS011;26030;51.164;17.100;2023-12-20T02:41:36;12.20;;;9.10;;
40322;SDS011;26030;51.164;17.100;2023-12-20T02:46:40;11.80;;;8.90;;
40322;SDS011;26030;51.164;17.100;2023-12-20T02:51:45;10.90;;;8.40;;
40322;SDS011;26030;51.164;17.100;2023-12-20T02:56:50;14.40;;;9.20;;
40322;SDS011;26030;51.164;17.100;2023-12-20T03:01:55;11.00;;;8.60;;
40322;SDS011;26030;51.164;17.100;2023-12-20T03:07:00;13.00;;;8.80;;
40322;SDS011;26030;51.164;17.100;2023-12-20T03:12:05;10.00;;;7.80;;
40322;SDS011;26030;51.164;17.100;2023-12-20T03:17:09;11.20;;;8.10;;
40322;SDS011;26030;51.164;17.100;2023-12-20T03:22:14;11.30;;;8.50;;
40322;SDS011;26030;51.164;17.100;2023-12-20T03:27:18;9.20;;;7.70;;
40322;SDS011;26030;51.164;17.100;2023-12-20T03:32:23;10.00;;;7.60;;
40322;SDS011;26030;51.164;17.100;2023-12-20T03:37:28;11.50;;;8.10;;
40322;SDS011;26030;51.164;17.100;2023-12-20T03:42:32;9.10;;;6.90;;
40322;SDS011;26030;51.164;17.100;2023-12-20T03:47:37;10.70;;;7.10;;
40322;SDS011;26030;51.164;17.100;2023-12-20T03:52:42;10.00;;;7.10;;
40322;SDS011;26030;51.164;17.100;2023-12-20T03:57:47;9.30;;;6.70;;
40322;SDS011;26030;51.164;17.100;2023-12-20T04:02:52;7.40;;;6.30;;
40322;SDS011;26030;51.164;17.100;2023-12-20T04:07:57;8.30;;;6.80;;
40322;SDS011;26030;51.164;17.100;2023-12-20T04:13:04;8.20;;;6.70;;
40322;SDS011;26030;51.164;17.100;2023-12-20T04:18:08;6.80;;;6.10;;
40322;SDS011;26030;51.164;17.100;2023-12-20T04:23:13;8.30;;;6.10;;
40322;SDS011;26030;51.164;17.100;2023-12-20T04:28:17;8.30;;;6.20;;
40322;SDS011;26030;51.164;17.100;2023-12-20T04:33:22;6.70;;;6.00;;
40322;SDS011;26030;51.164;17.100;2023-12-20T04:38:27;8.30;;;5.80;;
40322;SDS011;26030;51.164;17.100;2023-12-20T04:43:32;6.30;;;5.50;;
40322;SDS011;26030;51.164;17.100;2023-12-20T04:48:37;8.10;;;5.40;;
40322;SDS011;26030;51.164;17.100;2023-12-20T04:53:41;6.00;;;5.30;;
40322;SDS011;26030;51.164;17.100;2023-12-20T04:58:46;7.70;;;5.10;;
40322;SDS011;26030;51.164;17.100;2023-12-20T05:03:51;6.20;;;5.50;;
40322;SDS011;26030;51.164;17.100;2023-12-20T05:08:56;6.50;;;5.30;;
40322;SDS011;26030;51.164;17.100;2023-12-20T05:14:00;6.70;;;5.50;;
40322;SDS011;26030;51.164;17.100;2023-12-20T05:19:05;6.20;;;5.20;;
40322;SDS011;26030;51.164;17.100;2023-12-20T05:24:11;5.70;;;4.40;;
40322;SDS011;26030;51.164;17.100;2023-12-20T05:29:15;5.50;;;4.80;;
40322;SDS011;26030;51.164;17.100;2023-12-20T05:34:21;8.30;;;4.90;;
40322;SDS011;26030;51.164;17.100;2023-12-20T05:39:25;6.10;;;4.60;;
40322;SDS011;26030;51.164;17.100;2023-12-20T05:44:30;5.60;;;4.60;;
40322;SDS011;26030;51.164;17.100;2023-12-20T05:49:34;5.10;;;4.60;;
40322;SDS011;26030;51.164;17.100;2023-12-20T05:54:39;5.00;;;4.50;;
40322;SDS011;26030;51.164;17.100;2023-12-20T05:59:43;6.80;;;4.80;;
40322;SDS011;26030;51.164;17.100;2023-12-20T06:04:49;5.50;;;4.30;;
40322;SDS011;26030;51.164;17.100;2023-12-20T06:09:54;4.50;;;4.00;;
40322;SDS011;26030;51.164;17.100;2023-12-20T06:14:59;5.00;;;4.40;;
40322;SDS011;26030;51.164;17.100;2023-12-20T06:20:04;6.20;;;4.60;;
40322;SDS011;26030;51.164;17.100;2023-12-20T06:25:12;4.90;;;4.00;;
40322;SDS011;26030;51.164;17.100;2023-12-20T06:30:17;4.00;;;3.60;;
40322;SDS011;26030;51.164;17.100;2023-12-20T06:35:22;3.70;;;3.40;;
40322;SDS011;26030;51.164;17.100;2023-12-20T06:40:26;4.00;;;3.60;;
40322;SDS011;26030;51.164;17.100;2023-12-20T06:45:32;4.80;;;3.70;;
40322;SDS011;26030;51.164;17.100;2023-12-20T06:50:36;4.80;;;3.50;;
40322;SDS011;26030;51.164;17.100;2023-12-20T06:55:44;3.90;;;3.30;;
40322;SDS011;26030;51.164;17.100;2023-12-20T07:00:49;5.00;;;3.40;;
40322;SDS011;26030;51.164;17.100;2023-12-20T07:05:55;3.80;;;3.20;;
40322;SDS011;26030;51.164;17.100;2023-12-20T07:10:59;3.50;;;3.10;;
40322;SDS011;26030;51.164;17.100;2023-12-20T07:16:04;3.70;;;3.00;;
40322;SDS011;26030;51.164;17.100;2023-12-20T07:21:09;3.90;;;3.20;;
40322;SDS011;26030;51.164;17.100;2023-12-20T07:26:13;3.60;;;3.20;;
40322;SDS011;26030;51.164;17.100;2023-12-20T07:31:18;3.60;;;3.20;;
40322;SDS011;26030;51.164;17.100;2023-12-20T07:36:23;4.40;;;3.50;;
40322;SDS011;26030;51.164;17.100;2023-12-20T07:41:28;6.40;;;3.30;;
40322;SDS011;26030;51.164;17.100;2023-12-20T07:46:32;19.90;;;3.00;;
40322;SDS011;26030;51.164;17.100;2023-12-20T07:51:37;15.30;;;3.20;;
40322;SDS011;26030;51.164;17.100;2023-12-20T07:56:41;13.20;;;3.70;;
40322;SDS011;26030;51.164;17.100;2023-12-20T08:01:46;7.40;;;3.50;;
40322;SDS011;26030;51.164;17.100;2023-12-20T08:06:51;12.80;;;3.60;;
40322;SDS011;26030;51.164;17.100;2023-12-20T08:11:56;6.60;;;3.30;;
40322;SDS011;26030;51.164;17.100;2023-12-20T08:17:13;10.20;;;3.70;;
40322;SDS011;26030;51.164;17.100;2023-12-20T08:22:56;5.90;;;3.20;;
40322;SDS011;26030;51.164;17.100;2023-12-20T08:28:02;10.10;;;3.10;;
40322;SDS011;26030;51.164;17.100;2023-12-20T08:33:08;5.40;;;2.80;;
40322;SDS011;26030;51.164;17.100;2023-12-20T08:38:17;5.00;;;3.00;;
40322;SDS011;26030;51.164;17.100;2023-12-20T08:43:21;9.40;;;2.30;;
40322;SDS011;26030;51.164;17.100;2023-12-20T08:48:28;5.40;;;2.80;;
40322;SDS011;26030;51.164;17.100;2023-12-20T08:53:33;3.90;;;1.90;;
40322;SDS011;26030;51.164;17.100;2023-12-20T08:58:38;5.90;;;2.80;;
40322;SDS011;26030;51.164;17.100;2023-12-20T09:03:43;2.40;;;2.20;;
40322;SDS011;26030;51.164;17.100;2023-12-20T09:08:48;3.20;;;2.20;;
40322;SDS011;26030;51.164;17.100;2023-12-20T09:13:54;1.90;;;1.70;;
40322;SDS011;26030;51.164;17.100;2023-12-20T09:18:59;7.90;;;2.60;;
40322;SDS011;26030;51.164;17.100;2023-12-20T09:24:04;2.30;;;2.10;;
40322;SDS011;26030;51.164;17.100;2023-12-20T09:29:09;3.50;;;2.40;;
40322;SDS011;26030;51.164;17.100;2023-12-20T09:34:16;2.00;;;1.50;;
40322;SDS011;26030;51.164;17.100;2023-12-20T09:39:30;3.70;;;1.50;;
40322;SDS011;26030;51.164;17.100;2023-12-20T09:44:35;2.40;;;2.00;;
40322;SDS011;26030;51.164;17.100;2023-12-20T09:49:42;2.90;;;2.30;;
40322;SDS011;26030;51.164;17.100;2023-12-20T09:54:49;2.10;;;1.70;;
40322;SDS011;26030;51.164;17.100;2023-12-20T09:59:56;2.70;;;2.30;;
40322;SDS011;26030;51.164;17.100;2023-12-20T10:05:02;2.00;;;1.50;;
40322;SDS011;26030;51.164;17.100;2023-12-20T10:10:08;3.70;;;1.70;;
40322;SDS011;26030;51.164;17.100;2023-12-20T10:15:13;1.90;;;1.60;;
40322;SDS011;26030;51.164;17.100;2023-12-20T10:20:19;1.50;;;1.40;;
40322;SDS011;26030;51.164;17.100;2023-12-20T10:25:24;1.80;;;1.60;;
40322;SDS011;26030;51.164;17.100;2023-12-20T10:30:31;3.40;;;1.90;;
40322;SDS011;26030;51.164;17.100;2023-12-20T10:35:36;1.80;;;1.70;;
40322;SDS011;26030;51.164;17.100;2023-12-20T10:40:45;1.50;;;1.40;;
40322;SDS011;26030;51.164;17.100;2023-12-20T10:45:50;2.70;;;1.30;;
40322;SDS011;26030;51.164;17.100;2023-12-20T10:50:56;2.10;;;1.50;;
40322;SDS011;26030;51.164;17.100;2023-12-20T10:56:02;1.60;;;1.30;;
40322;SDS011;26030;51.164;17.100;2023-12-20T11:01:08;2.10;;;1.50;;
40322;SDS011;26030;51.164;17.100;2023-12-20T11:06:36;1.50;;;1.40;;
40322;SDS011;26030;51.164;17.100;2023-12-20T11:17:10;1.40;;;1.30;;
40322;SDS011;26030;51.164;17.100;2023-12-20T11:22:31;1.70;;;1.20;;
40322;SDS011;26030;51.164;17.100;2023-12-20T11:27:42;6.50;;;1.70;;
40322;SDS011;26030;51.164;17.100;2023-12-20T11:32:55;1.40;;;1.20;;
40322;SDS011;26030;51.164;17.100;2023-12-20T11:38:00;5.30;;;1.40;;
40322;SDS011;26030;51.164;17.100;2023-12-20T11:43:05;5.40;;;1.40;;
40322;SDS011;26030;51.164;17.100;2023-12-20T11:48:10;16.50;;;2.00;;
40322;SDS011;26030;51.164;17.100;2023-12-20T11:53:17;5.50;;;2.20;;
40322;SDS011;26030;51.164;17.100;2023-12-20T11:58:26;3.60;;;2.10;;
40322;SDS011;26030;51.164;17.100;2023-12-20T12:03:30;3.20;;;1.90;;
40322;SDS011;26030;51.164;17.100;2023-12-20T12:08:35;3.60;;;2.10;;
40322;SDS011;26030;51.164;17.100;2023-12-20T12:13:41;1.50;;;1.40;;
40322;SDS011;26030;51.164;17.100;2023-12-20T12:18:45;1.50;;;1.40;;
40322;SDS011;26030;51.164;17.100;2023-12-20T12:23:50;1.20;;;1.10;;
40322;SDS011;26030;51.164;17.100;2023-12-20T12:28:55;5.00;;;1.60;;
40322;SDS011;26030;51.164;17.100;2023-12-20T12:34:01;22.30;;;2.00;;
40322;SDS011;26030;51.164;17.100;2023-12-20T12:39:08;1.70;;;1.20;;
40322;SDS011;26030;51.164;17.100;2023-12-20T12:44:13;4.60;;;1.50;;
40322;SDS011;26030;51.164;17.100;2023-12-20T12:49:21;1.90;;;1.20;;
40322;SDS011;26030;51.164;17.100;2023-12-20T12:54:30;5.30;;;1.50;;
40322;SDS011;26030;51.164;17.100;2023-12-20T12:59:35;2.90;;;1.20;;
40322;SDS011;26030;51.164;17.100;2023-12-20T13:04:43;3.50;;;1.70;;
40322;SDS011;26030;51.164;17.100;2023-12-20T13:09:49;31.90;;;16.60;;
40322;SDS011;26030;51.164;17.100;2023-12-20T13:14:54;71.20;;;34.10;;
40322;SDS011;26030;51.164;17.100;2023-12-20T13:19:59;91.30;;;45.60;;
40322;SDS011;26030;51.164;17.100;2023-12-20T13:25:04;114.60;;;54.80;;
40322;SDS011;26030;51.164;17.100;2023-12-20T13:30:10;98.60;;;45.10;;
40322;SDS011;26030;51.164;17.100;2023-12-20T13:35:15;86.00;;;40.40;;
40322;SDS011;26030;51.164;17.100;2023-12-20T13:40:20;73.40;;;34.60;;
40322;SDS011;26030;51.164;17.100;2023-12-20T13:45:25;79.90;;;36.50;;
40322;SDS011;26030;51.164;17.100;2023-12-20T13:50:30;64.40;;;34.00;;
40322;SDS011;26030;51.164;17.100;2023-12-20T13:55:34;64.70;;;31.70;;
40322;SDS011;26030;51.164;17.100;2023-12-20T14:00:40;60.00;;;30.40;;
40322;SDS011;26030;51.164;17.100;2023-12-20T14:05:44;63.50;;;29.60;;
40322;SDS011;26030;51.164;17.100;2023-12-20T14:10:48;57.60;;;28.80;;
40322;SDS011;26030;51.164;17.100;2023-12-20T14:15:53;55.40;;;28.20;;
40322;SDS011;26030;51.164;17.100;2023-12-20T14:20:58;57.10;;;27.90;;
40322;SDS011;26030;51.164;17.100;2023-12-20T14:26:03;50.60;;;26.80;;
40322;SDS011;26030;51.164;17.100;2023-12-20T14:31:09;56.80;;;25.90;;
40322;SDS011;26030;51.164;17.100;2023-12-20T14:36:14;48.80;;;26.60;;
40322;SDS011;26030;51.164;17.100;2023-12-20T14:41:21;52.80;;;24.00;;
40322;SDS011;26030;51.164;17.100;2023-12-20T14:46:28;45.10;;;24.20;;
40322;SDS011;26030;51.164;17.100;2023-12-20T14:51:33;45.60;;;24.30;;
40322;SDS011;26030;51.164;17.100;2023-12-20T14:56:37;44.70;;;23.90;;
40322;SDS011;26030;51.164;17.100;2023-12-20T15:01:43;42.70;;;23.00;;
40322;SDS011;26030;51.164;17.100;2023-12-20T15:06:48;43.30;;;22.60;;
40322;SDS011;26030;51.164;17.100;2023-12-20T15:11:53;41.70;;;22.50;;
40322;SDS011;26030;51.164;17.100;2023-12-20T15:16:57;39.00;;;21.90;;
40322;SDS011;26030;51.164;17.100;2023-12-20T15:22:02;39.00;;;21.00;;
40322;SDS011;26030;51.164;17.100;2023-12-20T15:27:08;32.70;;;19.60;;
40322;SDS011;26030;51.164;17.100;2023-12-20T15:32:12;38.70;;;19.80;;
40322;SDS011;26030;51.164;17.100;2023-12-20T15:37:17;34.10;;;18.80;;
40322;SDS011;26030;51.164;17.100;2023-12-20T15:42:22;31.70;;;18.50;;
40322;SDS011;26030;51.164;17.100;2023-12-20T15:47:26;31.50;;;18.10;;
40322;SDS011;26030;51.164;17.100;2023-12-20T15:52:32;26.10;;;17.60;;
40322;SDS011;26030;51.164;17.100;2023-12-20T15:57:36;30.20;;;17.30;;
40322;SDS011;26030;51.164;17.100;2023-12-20T16:02:54;23.30;;;15.90;;
40322;SDS011;26030;51.164;17.100;2023-12-20T16:07:59;26.00;;;14.60;;
40322;SDS011;26030;51.164;17.100;2023-12-20T16:13:04;20.70;;;14.40;;
40322;SDS011;26030;51.164;17.100;2023-12-20T16:18:09;25.10;;;15.50;;
40322;SDS011;26030;51.164;17.100;2023-12-20T16:23:15;22.40;;;13.90;;
40322;SDS011;26030;51.164;17.100;2023-12-20T16:28:19;22.40;;;13.00;;
40322;SDS011;26030;51.164;17.100;2023-12-20T16:33:24;24.30;;;13.60;;
40322;SDS011;26030;51.164;17.100;2023-12-20T16:38:28;17.50;;;12.20;;
40322;SDS011;26030;51.164;17.100;2023-12-20T16:43:36;23.10;;;13.50;;
40322;SDS011;26030;51.164;17.100;2023-12-20T16:48:50;23.30;;;11.80;;
40322;SDS011;26030;51.164;17.100;2023-12-20T16:53:56;20.80;;;13.10;;
40322;SDS011;26030;51.164;17.100;2023-12-20T16:59:01;18.20;;;11.00;;
40322;SDS011;26030;51.164;17.100;2023-12-20T17:04:06;17.90;;;11.80;;
40322;SDS011;26030;51.164;17.100;2023-12-20T17:09:10;18.90;;;11.60;;
40322;SDS011;26030;51.164;17.100;2023-12-20T17:14:15;25.60;;;11.50;;
40322;SDS011;26030;51.164;17.100;2023-12-20T17:19:20;20.10;;;10.00;;
40322;SDS011;26030;51.164;17.100;2023-12-20T17:24:27;15.70;;;10.50;;
40322;SDS011;26030;51.164;17.100;2023-12-20T17:29:32;17.20;;;10.30;;
40322;SDS011;26030;51.164;17.100;2023-12-20T17:34:43;22.60;;;9.80;;
40322;SDS011;26030;51.164;17.100;2023-12-20T17:39:50;25.50;;;11.00;;
40322;SDS011;26030;51.164;17.100;2023-12-20T17:45:04;25.90;;;13.30;;
40322;SDS011;26030;51.164;17.100;2023-12-20T17:50:17;28.70;;;11.40;;
40322;SDS011;26030;51.164;17.100;2023-12-20T17:55:30;20.30;;;11.60;;
40322;SDS011;26030;51.164;17.100;2023-12-20T18:00:59;18.00;;;11.30;;
40322;SDS011;26030;51.164;17.100;2023-12-20T18:06:26;20.70;;;11.30;;
40322;SDS011;26030;51.164;17.100;2023-12-20T18:11:35;17.00;;;10.50;;
40322;SDS011;26030;51.164;17.100;2023-12-20T18:16:41;15.40;;;10.20;;
40322;SDS011;26030;51.164;17.100;2023-12-20T18:21:49;15.20;;;8.50;;
40322;SDS011;26030;51.164;17.100;2023-12-20T18:26:59;24.60;;;8.30;;
40322;SDS011;26030;51.164;17.100;2023-12-20T18:32:05;12.20;;;8.10;;
40322;SDS011;26030;51.164;17.100;2023-12-20T18:37:13;9.50;;;7.60;;
40322;SDS011;26030;51.164;17.100;2023-12-20T18:42:21;12.80;;;7.10;;
40322;SDS011;26030;51.164;17.100;2023-12-20T18:47:26;14.90;;;7.60;;
40322;SDS011;26030;51.164;17.100;2023-12-20T18:52:35;12.60;;;7.20;;
40322;SDS011;26030;51.164;17.100;2023-12-20T18:57:42;19.00;;;7.20;;
40322;SDS011;26030;51.164;17.100;2023-12-20T19:02:53;15.10;;;6.70;;
40322;SDS011;26030;51.164;17.100;2023-12-20T19:08:02;13.60;;;7.80;;
40322;SDS011;26030;51.164;17.100;2023-12-20T19:13:08;10.40;;;6.40;;
40322;SDS011;26030;51.164;17.100;2023-12-20T19:18:12;15.60;;;6.60;;
40322;SDS011;26030;51.164;17.100;2023-12-20T19:23:18;14.90;;;6.20;;
40322;SDS011;26030;51.164;17.100;2023-12-20T19:28:22;17.80;;;6.90;;
40322;SDS011;26030;51.164;17.100;2023-12-20T19:33:27;26.50;;;7.70;;
40322;SDS011;26030;51.164;17.100;2023-12-20T19:38:34;19.00;;;6.10;;
40322;SDS011;26030;51.164;17.100;2023-12-20T19:43:39;23.30;;;6.40;;
40322;SDS011;26030;51.164;17.100;2023-12-20T19:48:44;17.80;;;6.40;;
40322;SDS011;26030;51.164;17.100;2023-12-20T19:53:49;15.90;;;5.90;;
40322;SDS011;26030;51.164;17.100;2023-12-20T19:58:54;14.70;;;6.10;;
40322;SDS011;26030;51.164;17.100;2023-12-20T20:04:00;20.30;;;5.70;;
40322;SDS011;26030;51.164;17.100;2023-12-20T20:09:05;13.80;;;5.80;;
40322;SDS011;26030;51.164;17.100;2023-12-20T20:14:10;15.90;;;5.50;;
40322;SDS011;26030;51.164;17.100;2023-12-20T20:19:15;17.60;;;7.90;;
40322;SDS011;26030;51.164;17.100;2023-12-20T20:24:21;12.90;;;6.20;;
40322;SDS011;26030;51.164;17.100;2023-12-20T20:29:26;15.20;;;6.70;;
40322;SDS011;26030;51.164;17.100;2023-12-20T20:34:31;13.70;;;5.80;;
40322;SDS011;26030;51.164;17.100;2023-12-20T20:39:36;16.70;;;6.10;;
40322;SDS011;26030;51.164;17.100;2023-12-20T20:44:42;17.50;;;6.50;;
40322;SDS011;26030;51.164;17.100;2023-12-20T20:49:47;17.40;;;5.70;;
40322;SDS011;26030;51.164;17.100;2023-12-20T20:54:51;13.20;;;5.60;;
40322;SDS011;26030;51.164;17.100;2023-12-20T20:59:56;13.20;;;5.20;;
40322;SDS011;26030;51.164;17.100;2023-12-20T21:05:01;10.70;;;5.20;;
40322;SDS011;26030;51.164;17.100;2023-12-20T21:10:08;12.30;;;5.00;;
40322;SDS011;26030;51.164;17.100;2023-12-20T21:15:13;11.80;;;5.50;;
40322;SDS011;26030;51.164;17.100;2023-12-20T21:20:18;24.70;;;5.50;;
40322;SDS011;26030;51.164;17.100;2023-12-20T21:25:23;16.30;;;5.30;;
40322;SDS011;26030;51.164;17.100;2023-12-20T21:30:29;13.80;;;5.00;;
40322;SDS011;26030;51.164;17.100;2023-12-20T21:35:37;12.10;;;5.10;;
40322;SDS011;26030;51.164;17.100;2023-12-20T21:40:42;8.10;;;4.10;;
40322;SDS011;26030;51.164;17.100;2023-12-20T21:45:46;12.90;;;5.80;;
40322;SDS011;26030;51.164;17.100;2023-12-20T21:50:55;12.00;;;4.80;;
40322;SDS011;26030;51.164;17.100;2023-12-20T21:56:00;9.90;;;4.40;;
40322;SDS011;26030;51.164;17.100;2023-12-20T22:01:04;6.70;;;4.30;;
40322;SDS011;26030;51.164;17.100;2023-12-20T22:06:10;15.50;;;4.60;;
40322;SDS011;26030;51.164;17.100;2023-12-20T22:11:14;11.20;;;5.10;;
40322;SDS011;26030;51.164;17.100;2023-12-20T22:16:19;11.50;;;4.80;;
40322;SDS011;26030;51.164;17.100;2023-12-20T22:21:26;9.40;;;5.40;;
40322;SDS011;26030;51.164;17.100;2023-12-20T22:26:30;11.20;;;4.10;;
40322;SDS011;26030;51.164;17.100;2023-12-20T22:31:35;8.60;;;3.80;;
40322;SDS011;26030;51.164;17.100;2023-12-20T22:36:40;9.70;;;4.20;;
40322;SDS011;26030;51.164;17.100;2023-12-20T22:41:45;7.10;;;3.50;;
40322;SDS011;26030;51.164;17.100;2023-12-20T22:46:50;7.30;;;3.70;;
40322;SDS011;26030;51.164;17.100;2023-12-20T22:51:55;6.80;;;3.90;;
40322;SDS011;26030;51.164;17.100;2023-12-20T22:57:00;7.20;;;3.60;;
40322;SDS011;26030;51.164;17.100;2023-12-20T23:02:04;5.70;;;3.60;;
40322;SDS011;26030;51.164;17.100;2023-12-20T23:07:09;6.10;;;3.00;;
40322;SDS011;26030;51.164;17.100;2023-12-20T23:12:14;7.70;;;3.80;;
40322;SDS011;26030;51.164;17.100;2023-12-20T23:17:18;7.60;;;4.40;;
40322;SDS011;26030;51.164;17.100;2023-12-20T23:22:23;6.50;;;3.40;;
40322;SDS011;26030;51.164;17.100;2023-12-20T23:27:28;6.00;;;3.20;;
40322;SDS011;26030;51.164;17.100;2023-12-20T23:32:32;7.50;;;3.10;;
40322;SDS011;26030;51.164;17.100;2023-12-20T23:37:38;6.10;;;3.00;;
40322;SDS011;26030;51.164;17.100;2023-12-20T23:42:42;5.60;;;2.90;;
40322;SDS011;26030;51.164;17.100;2023-12-20T23:47:47;6.70;;;3.20;;
40322;SDS011;26030;51.164;17.100;2023-12-20T23:52:52;7.20;;;2.90;;
40322;SDS011;26030;51.164;17.100;2023-12-20T23:57:57;3.00;;;2.50;;
